createdAt,value
2018-11-11T00:00:58.787Z,575.03
2018-11-11T00:03:26.177Z,572.50
2018-11-11T00:05:53.565Z,565.07
2018-11-11T00:08:20.992Z,595.37
2018-11-11T00:10:48.398Z,568.10
2018-11-11T00:13:15.766Z,624.03
2018-11-11T00:15:43.158Z,595.57
2018-11-11T00:18:10.549Z,660.57
2018-11-11T00:20:37.970Z,636.93
2018-11-11T00:23:05.391Z,704.40
2018-11-11T00:25:33.054Z,647.57
2018-11-11T00:28:00.439Z,640.17
2018-11-11T00:30:27.790Z,608.43
2018-11-11T00:32:55.188Z,533.40
2018-11-11T00:35:22.544Z,722.87
2018-11-11T00:37:50.003Z,1038.53
2018-11-11T00:40:17.387Z,1106.53
2018-11-11T00:42:45.313Z,763.97
2018-11-11T00:45:13.608Z,699.47
2018-11-11T00:47:42.514Z,706.73
2018-11-11T00:50:16.483Z,592.33
2018-11-11T00:52:44.467Z,563.87
2018-11-11T00:55:13.589Z,616.23
2018-11-11T00:57:41.425Z,591.83
2018-11-11T01:00:11.861Z,569.30
2018-11-11T01:02:39.438Z,586.60
2018-11-11T01:05:07.572Z,608.43
2018-11-11T01:07:35.283Z,645.47
2018-11-11T01:10:02.960Z,595.90
2018-11-11T01:12:30.514Z,634.17
2018-11-11T01:14:57.869Z,654.23
2018-11-11T01:17:27.690Z,679.97
2018-11-11T01:19:55.093Z,657.97
2018-11-11T01:22:22.865Z,675.40
2018-11-11T01:24:50.245Z,733.90
2018-11-11T01:27:20.246Z,701.60
2018-11-11T01:29:54.895Z,634.00
2018-11-11T01:32:29.202Z,768.87
2018-11-11T01:34:56.962Z,708.23
2018-11-11T01:37:24.273Z,738.40
2018-11-11T01:39:51.657Z,770.53
2018-11-11T01:42:19.019Z,765.57
2018-11-11T01:44:46.397Z,689.73
2018-11-11T01:47:13.780Z,679.67
2018-11-11T01:49:41.213Z,667.00
2018-11-11T01:52:08.598Z,785.40
2018-11-11T01:54:35.987Z,756.80
2018-11-11T01:57:03.322Z,692.27
2018-11-11T01:59:30.698Z,672.60
2018-11-11T02:01:58.494Z,584.13
2018-11-11T02:04:25.882Z,713.27
2018-11-11T02:06:53.320Z,672.30
2018-11-11T02:09:20.695Z,701.97
2018-11-11T02:11:48.086Z,734.53
2018-11-11T02:14:15.432Z,742.87
2018-11-11T02:16:42.858Z,664.43
2018-11-11T02:19:10.258Z,679.70
2018-11-11T02:21:37.630Z,773.30
2018-11-11T02:24:04.949Z,647.80
2018-11-11T02:26:32.310Z,701.47
2018-11-11T02:28:59.658Z,711.97
2018-11-11T02:31:27.050Z,636.57
2018-11-11T02:33:54.377Z,683.13
2018-11-11T02:36:21.796Z,683.97
2018-11-11T02:38:49.144Z,677.83
2018-11-11T02:41:16.509Z,616.97
2018-11-11T02:43:43.887Z,654.17
2018-11-11T02:46:11.245Z,600.43
2018-11-11T02:48:38.614Z,635.63
2018-11-11T02:51:06.036Z,705.03
2018-11-11T02:53:33.424Z,661.83
2018-11-11T02:56:00.765Z,659.73
2018-11-11T02:58:28.111Z,574.17
2018-11-11T03:01:03.503Z,563.40
2018-11-11T03:03:32.794Z,650.97
2018-11-11T03:06:00.291Z,560.67
2018-11-11T03:11:05.094Z,638.60
2018-11-11T03:13:32.426Z,601.47
2018-11-11T03:15:59.783Z,494.07
2018-11-11T03:18:27.087Z,679.73
2018-11-11T03:20:54.423Z,744.30
2018-11-11T03:23:21.802Z,526.27
2018-11-11T03:25:49.212Z,525.87
2018-11-11T03:28:16.551Z,567.17
2018-11-11T03:30:43.900Z,521.30
2018-11-11T03:33:11.256Z,532.60
2018-11-11T03:35:38.618Z,625.77
2018-11-11T03:38:06.073Z,612.77
2018-11-11T03:40:33.426Z,475.80
2018-11-11T03:43:00.744Z,518.43
2018-11-11T03:45:28.151Z,514.43
2018-11-11T03:47:55.486Z,547.30
2018-11-11T03:50:22.868Z,538.80
2018-11-11T03:52:50.353Z,517.67
2018-11-11T03:55:17.844Z,763.97
2018-11-11T03:57:45.236Z,550.57
2018-11-11T04:00:13.781Z,540.00
2018-11-11T04:02:41.114Z,670.87
2018-11-11T04:05:09.370Z,672.30
2018-11-11T04:07:36.901Z,554.87
2018-11-11T04:10:05.800Z,578.80
2018-11-11T04:12:33.218Z,543.83
2018-11-11T04:15:00.781Z,514.40
2018-11-11T04:17:28.139Z,457.30
2018-11-11T04:19:55.483Z,518.83
2018-11-11T04:22:23.257Z,555.13
2018-11-11T04:24:51.728Z,533.20
2018-11-11T04:27:19.467Z,503.77
2018-11-11T04:29:46.854Z,553.23
2018-11-11T04:32:14.141Z,586.83
2018-11-11T04:34:42.429Z,553.87
2018-11-11T04:37:12.500Z,554.70
2018-11-11T04:39:40.338Z,567.20
2018-11-11T04:42:07.717Z,582.83
2018-11-11T04:44:36.305Z,537.50
2018-11-11T04:47:03.686Z,557.87
2018-11-11T04:49:30.988Z,511.33
2018-11-11T04:51:58.607Z,527.90
2018-11-11T04:54:25.949Z,559.07
2018-11-11T04:56:53.279Z,543.30
2018-11-11T04:59:20.803Z,481.23
2018-11-11T05:01:48.625Z,511.50
2018-11-11T05:04:15.987Z,674.47
2018-11-11T05:06:43.343Z,492.57
2018-11-11T05:09:12.262Z,510.33
2018-11-11T05:11:39.766Z,547.17
2018-11-11T05:14:07.177Z,560.73
2018-11-11T05:16:34.520Z,471.97
2018-11-11T05:19:01.933Z,549.30
2018-11-11T05:21:29.242Z,462.70
2018-11-11T05:23:56.626Z,528.37
2018-11-11T05:26:23.951Z,472.60
2018-11-11T05:28:51.298Z,485.50
2018-11-11T05:31:19.233Z,439.77
2018-11-11T05:33:46.521Z,479.70
2018-11-11T05:36:13.870Z,509.80
2018-11-11T05:38:41.307Z,471.40
2018-11-11T05:41:08.618Z,461.87
2018-11-11T05:43:36.013Z,548.33
2018-11-11T05:46:03.426Z,484.63
2018-11-11T05:48:30.785Z,475.87
2018-11-11T05:50:58.170Z,521.03
2018-11-11T05:53:25.556Z,501.73
2018-11-11T05:55:52.927Z,444.23
2018-11-11T05:58:20.326Z,535.10
2018-11-11T06:00:48.106Z,566.50
2018-11-11T06:03:15.465Z,499.47
2018-11-11T06:05:42.879Z,475.30
2018-11-11T06:08:10.274Z,496.03
2018-11-11T06:10:37.585Z,470.33
2018-11-11T06:13:04.970Z,440.27
2018-11-11T06:15:32.363Z,472.50
2018-11-11T06:17:59.677Z,443.40
2018-11-11T06:20:27.206Z,484.17
2018-11-11T06:22:55.668Z,472.90
2018-11-11T06:25:26.561Z,488.67
2018-11-11T06:27:54.056Z,422.57
2018-11-11T06:30:22.562Z,446.80
2018-11-11T06:32:49.958Z,428.20
2018-11-11T06:37:51.499Z,443.43
2018-11-11T06:40:18.813Z,439.70
2018-11-11T06:42:46.342Z,408.80
2018-11-11T06:45:14.645Z,417.77
2018-11-11T06:47:43.266Z,414.37
2018-11-11T06:50:11.555Z,406.57
2018-11-11T06:52:39.809Z,387.37
2018-11-11T06:55:09.111Z,369.67
2018-11-11T06:57:38.333Z,417.83
2018-11-11T07:00:07.262Z,381.30
2018-11-11T07:02:37.704Z,388.37
2018-11-11T07:05:06.111Z,357.67
2018-11-11T07:07:33.609Z,390.20
2018-11-11T07:10:01.046Z,390.03
2018-11-11T07:12:28.582Z,384.47
2018-11-11T07:14:55.898Z,376.10
2018-11-11T07:17:23.314Z,395.20
2018-11-11T07:19:50.712Z,358.90
2018-11-11T07:22:18.095Z,339.90
2018-11-11T07:24:45.737Z,331.57
2018-11-11T07:27:13.056Z,331.87
2018-11-11T07:29:40.364Z,368.23
2018-11-11T07:32:07.730Z,347.87
2018-11-11T07:34:35.045Z,347.43
2018-11-11T07:37:02.391Z,319.17
2018-11-11T07:39:29.843Z,337.53
2018-11-11T07:41:57.214Z,334.07
2018-11-11T07:44:24.618Z,341.17
2018-11-11T07:46:51.935Z,327.57
2018-11-11T07:49:19.507Z,336.20
2018-11-11T07:51:46.814Z,317.40
2018-11-11T07:54:14.480Z,318.57
2018-11-11T07:56:41.822Z,294.13
2018-11-11T07:59:09.274Z,317.47
2018-11-11T08:01:36.694Z,314.20
2018-11-11T08:04:04.029Z,317.37
2018-11-11T08:06:31.745Z,321.57
2018-11-11T08:08:59.048Z,325.97
2018-11-11T08:11:38.363Z,345.97
2018-11-11T08:14:05.977Z,333.77
2018-11-11T08:16:34.861Z,335.00
2018-11-11T08:19:06.338Z,336.53
2018-11-11T08:21:34.950Z,324.83
2018-11-11T08:24:03.013Z,327.73
2018-11-11T08:26:30.502Z,326.30
2018-11-11T08:28:58.569Z,327.27
2018-11-11T08:31:26.266Z,317.87
2018-11-11T08:33:53.601Z,321.57
2018-11-11T08:36:21.018Z,309.53
2018-11-11T08:38:48.409Z,342.53
2018-11-11T08:41:15.986Z,326.37
2018-11-11T08:43:43.350Z,334.10
2018-11-11T08:46:11.498Z,322.17
2018-11-11T08:48:39.194Z,331.73
2018-11-11T08:51:08.790Z,309.70
2018-11-11T08:53:36.525Z,342.10
2018-11-11T08:56:06.777Z,308.00
2018-11-11T09:01:11.232Z,301.73
2018-11-11T09:03:42.170Z,329.30
2018-11-11T09:06:11.131Z,295.37
2018-11-11T09:08:38.496Z,333.23
2018-11-11T09:11:09.921Z,308.60
2018-11-11T09:13:42.173Z,330.87
2018-11-11T09:16:29.529Z,301.67
2018-11-11T09:19:01.265Z,304.43
2018-11-11T09:21:29.163Z,292.10
2018-11-11T09:23:56.474Z,301.43
2018-11-11T09:26:23.854Z,334.07
2018-11-11T09:28:51.215Z,316.37
2018-11-11T09:31:18.555Z,295.23
2018-11-11T09:33:45.999Z,318.07
2018-11-11T09:36:13.550Z,315.23
2018-11-11T09:38:40.919Z,314.70
2018-11-11T09:41:08.777Z,285.20
2018-11-11T09:43:36.494Z,310.83
2018-11-11T09:46:03.964Z,301.10
2018-11-11T09:48:31.354Z,326.67
2018-11-11T09:50:58.731Z,292.13
2018-11-11T09:53:26.229Z,337.63
2018-11-11T09:55:53.581Z,276.23
2018-11-11T09:58:20.980Z,310.30
2018-11-11T10:00:50.414Z,295.50
2018-11-11T10:04:26.058Z,316.67
2018-11-11T10:06:59.251Z,280.87
2018-11-11T10:10:37.198Z,295.07
2018-11-11T10:13:17.423Z,313.23
2018-11-11T10:17:53.464Z,271.97
2018-11-11T10:20:40.601Z,279.30
2018-11-11T10:23:17.761Z,311.47
2018-11-11T10:26:08.657Z,283.17
2018-11-11T10:28:46.664Z,303.60
2018-11-11T10:31:19.745Z,298.30
2018-11-11T10:33:54.428Z,309.60
2018-11-11T10:36:26.449Z,283.80
2018-11-11T10:38:59.931Z,296.47
2018-11-11T10:41:36.207Z,289.17
2018-11-11T10:44:06.908Z,279.33
2018-11-11T10:47:05.629Z,283.63
2018-11-11T10:49:37.423Z,283.90
2018-11-11T10:52:05.057Z,283.23
2018-11-11T10:54:32.732Z,287.87
2018-11-11T10:57:00.057Z,267.63
2018-11-11T10:59:27.359Z,300.93
2018-11-11T11:02:03.797Z,282.73
2018-11-11T11:04:31.261Z,303.70
2018-11-11T11:07:04.186Z,268.77
2018-11-11T11:09:31.541Z,294.10
2018-11-11T11:11:58.877Z,271.20
2018-11-11T11:14:26.202Z,269.70
2018-11-11T11:16:53.512Z,280.17
2018-11-11T11:19:21.063Z,279.23
2018-11-11T11:21:50.312Z,263.80
2018-11-11T11:24:17.623Z,277.00
2018-11-11T11:26:44.943Z,289.57
2018-11-11T11:29:12.291Z,286.17
2018-11-11T11:31:39.805Z,274.03
2018-11-11T11:34:07.078Z,271.50
2018-11-11T11:36:34.447Z,273.30
2018-11-11T11:39:01.825Z,261.50
2018-11-11T11:41:29.201Z,261.57
2018-11-11T11:43:56.538Z,276.47
2018-11-11T11:46:23.899Z,283.73
2018-11-11T11:48:51.230Z,284.40
2018-11-11T11:51:19.405Z,283.40
2018-11-11T11:53:46.700Z,303.00
2018-11-11T11:56:14.108Z,292.30
2018-11-11T11:58:41.433Z,287.70
2018-11-11T12:01:09.134Z,261.80
2018-11-11T12:03:36.543Z,296.67
2018-11-11T12:06:03.948Z,276.50
2018-11-11T12:08:31.311Z,274.67
2018-11-11T12:10:58.637Z,268.52
2018-11-11T12:13:25.963Z,279.32
2018-11-11T12:18:32.494Z,278.15
2018-11-11T12:21:03.839Z,264.93
2018-11-11T12:23:33.894Z,255.70
2018-11-11T12:26:04.951Z,264.47
2018-11-11T12:28:35.212Z,285.47
2018-11-11T12:31:03.253Z,294.40
2018-11-11T12:33:33.607Z,317.80
2018-11-11T12:36:07.842Z,256.07
2018-11-11T12:38:36.050Z,303.90
2018-11-11T12:41:05.087Z,292.77
2018-11-11T12:43:33.225Z,321.67
2018-11-11T12:46:00.715Z,316.67
2018-11-11T12:48:28.106Z,305.83
2018-11-11T12:50:55.403Z,270.93
2018-11-11T12:53:25.185Z,287.80
2018-11-11T12:55:54.536Z,246.80
2018-11-11T12:58:24.196Z,292.60
2018-11-11T13:00:51.937Z,267.60
2018-11-11T13:03:19.478Z,323.43
2018-11-11T13:05:46.873Z,274.63
2018-11-11T13:08:14.252Z,314.53
2018-11-11T13:10:41.721Z,284.07
2018-11-11T13:13:09.216Z,301.83
2018-11-11T13:15:36.928Z,271.93
2018-11-11T13:18:04.804Z,311.50
2018-11-11T13:20:32.123Z,286.07
2018-11-11T13:22:59.516Z,303.30
2018-11-11T13:25:26.905Z,282.27
2018-11-11T13:28:00.984Z,299.87
2018-11-11T13:30:30.001Z,265.70
2018-11-11T13:32:57.496Z,303.80
2018-11-11T13:35:25.958Z,275.37
2018-11-11T13:37:53.829Z,280.30
2018-11-11T13:40:21.262Z,290.03
2018-11-11T13:42:48.554Z,309.90
2018-11-11T13:45:17.242Z,297.20
2018-11-11T13:47:45.753Z,273.27
2018-11-11T13:50:27.689Z,292.53
2018-11-11T13:52:55.007Z,303.90
2018-11-11T13:55:22.444Z,276.83
2018-11-11T13:57:50.056Z,285.90
2018-11-11T14:00:19.646Z,284.07
2018-11-11T14:02:47.438Z,298.33
2018-11-11T14:05:15.126Z,283.97
2018-11-11T14:07:42.504Z,274.43
2018-11-11T14:10:11.839Z,294.67
2018-11-11T14:12:39.484Z,349.53
2018-11-11T14:15:17.752Z,283.07
2018-11-11T14:17:45.812Z,267.40
2018-11-11T14:20:14.361Z,263.07
2018-11-11T14:22:42.804Z,291.47
2018-11-11T14:25:13.977Z,295.13
2018-11-11T14:27:41.379Z,267.67
2018-11-11T14:30:16.805Z,297.17
2018-11-11T14:32:44.652Z,311.33
2018-11-11T14:35:12.371Z,288.20
2018-11-11T14:40:16.383Z,308.00
2018-11-11T14:42:44.142Z,282.10
2018-11-11T14:45:12.657Z,324.33
2018-11-11T14:47:40.969Z,288.23
2018-11-11T14:50:09.567Z,283.33
2018-11-11T14:52:37.061Z,293.97
2018-11-11T14:55:13.098Z,296.23
2018-11-11T14:57:40.524Z,298.97
2018-11-11T15:00:10.668Z,286.03
2018-11-11T15:02:38.475Z,292.03
2018-11-11T15:05:07.716Z,287.87
2018-11-11T15:07:35.024Z,285.90
2018-11-11T15:10:02.525Z,288.10
2018-11-11T15:12:29.837Z,286.60
2018-11-11T15:14:57.163Z,280.70
2018-11-11T15:17:24.482Z,290.57
2018-11-11T15:22:25.569Z,277.00
2018-11-11T15:24:52.874Z,288.80
2018-11-11T15:27:20.194Z,276.17
2018-11-11T15:29:51.174Z,281.37
2018-11-11T15:32:18.558Z,280.33
2018-11-11T15:34:45.908Z,273.83
2018-11-11T15:37:13.231Z,285.23
2018-11-11T15:39:40.757Z,281.10
2018-11-11T15:42:08.184Z,264.73
2018-11-11T15:44:35.514Z,285.83
2018-11-11T15:47:02.821Z,277.53
2018-11-11T15:49:32.456Z,253.17
2018-11-11T15:52:09.616Z,287.27
2018-11-11T15:54:40.977Z,281.87
2018-11-11T15:57:11.075Z,267.57
2018-11-11T15:59:38.438Z,269.37
2018-11-11T16:02:11.301Z,302.07
2018-11-11T16:04:40.465Z,318.17
2018-11-11T16:07:10.986Z,308.60
2018-11-11T16:09:41.260Z,328.90
2018-11-11T16:12:08.998Z,291.37
2018-11-11T16:14:36.360Z,302.60
2018-11-11T16:17:03.953Z,307.40
2018-11-11T16:19:31.384Z,352.90
2018-11-11T16:21:58.962Z,344.23
2018-11-11T16:24:27.442Z,337.17
2018-11-11T16:27:02.973Z,325.43
2018-11-11T16:29:32.757Z,310.50
2018-11-11T16:32:01.803Z,302.50
2018-11-11T16:34:29.214Z,284.43
2018-11-11T16:36:56.615Z,303.73
2018-11-11T16:39:24.092Z,299.77
2018-11-11T16:41:51.527Z,316.17
2018-11-11T16:44:18.953Z,311.27
2018-11-11T16:46:46.914Z,287.67
2018-11-11T16:49:14.845Z,320.00
2018-11-11T16:51:42.172Z,309.30
2018-11-11T16:54:09.604Z,301.63
2018-11-11T16:56:36.928Z,313.20
2018-11-11T16:59:04.694Z,309.50
2018-11-11T17:01:32.026Z,293.53
2018-11-11T17:04:03.496Z,310.97
2018-11-11T17:06:30.861Z,313.50
2018-11-11T17:08:58.217Z,306.13
2018-11-11T17:11:25.944Z,326.50
2018-11-11T17:13:53.297Z,311.70
2018-11-11T17:16:20.890Z,319.43
2018-11-11T17:18:48.385Z,351.03
2018-11-11T17:21:17.311Z,344.03
2018-11-11T17:23:47.561Z,333.33
2018-11-11T17:26:14.974Z,334.10
2018-11-11T17:28:42.338Z,374.20
2018-11-11T17:31:09.742Z,356.73
2018-11-11T17:33:40.803Z,377.67
2018-11-11T17:36:09.118Z,344.67
2018-11-11T17:38:37.116Z,354.00
2018-11-11T17:44:09.342Z,344.37
2018-11-11T17:46:37.342Z,319.60
2018-11-11T17:49:06.456Z,293.93
2018-11-11T17:51:35.195Z,290.53
2018-11-11T17:54:02.742Z,381.77
2018-11-11T17:56:30.714Z,357.13
2018-11-11T17:58:58.066Z,374.23
2018-11-11T18:01:25.514Z,347.53
2018-11-11T18:03:53.194Z,358.93
2018-11-11T18:06:20.623Z,337.17
2018-11-11T18:08:48.080Z,349.07
2018-11-11T18:11:15.611Z,346.57
2018-11-11T18:13:42.975Z,357.13
2018-11-11T18:16:10.329Z,330.90
2018-11-11T18:18:38.202Z,349.77
2018-11-11T18:21:05.546Z,354.50
2018-11-11T18:23:32.975Z,361.63
2018-11-11T18:26:00.330Z,366.27
2018-11-11T18:28:27.693Z,361.37
2018-11-11T18:30:55.497Z,326.80
2018-11-11T18:33:23.157Z,359.53
2018-11-11T18:35:50.570Z,346.90
2018-11-11T18:38:17.947Z,371.63
2018-11-11T18:40:45.278Z,330.43
2018-11-11T18:43:12.599Z,355.13
2018-11-11T18:45:40.370Z,332.73
2018-11-11T18:48:07.792Z,366.67
2018-11-11T18:50:35.159Z,373.30
2018-11-11T18:53:03.201Z,403.07
2018-11-11T18:55:31.079Z,369.67
2018-11-11T18:57:58.488Z,379.20
2018-11-11T19:00:31.043Z,342.80
2018-11-11T19:03:02.863Z,387.47
2018-11-11T19:05:33.014Z,351.27
2018-11-11T19:08:00.605Z,363.20
2018-11-11T19:12:10.329Z,337.37
2018-11-11T19:14:37.822Z,349.33
2018-11-11T19:17:05.337Z,334.77
2018-11-11T19:19:32.721Z,348.07
2018-11-11T19:22:00.070Z,339.10
2018-11-11T19:24:27.459Z,396.37
2018-11-11T19:26:54.957Z,339.57
2018-11-11T19:29:22.353Z,345.23
2018-11-11T19:31:49.877Z,381.67
2018-11-11T19:34:17.524Z,369.20
2018-11-11T19:36:45.194Z,361.93
2018-11-11T19:39:13.384Z,370.30
2018-11-11T19:41:41.340Z,380.97
2018-11-11T19:44:09.222Z,347.20
2018-11-11T19:46:36.667Z,353.10
2018-11-11T19:49:04.219Z,358.03
2018-11-11T19:51:31.603Z,336.40
2018-11-11T19:53:59.607Z,345.63
2018-11-11T19:56:27.618Z,405.73
2018-11-11T19:58:54.942Z,406.07
2018-11-11T20:01:22.343Z,364.23
2018-11-11T20:03:50.067Z,373.33
2018-11-11T20:06:17.403Z,757.37
2018-11-11T20:11:26.962Z,708.30
2018-11-11T20:13:54.414Z,612.07
2018-11-11T20:16:28.629Z,561.50
2018-11-11T20:18:55.992Z,390.13
2018-11-11T20:21:23.342Z,560.27
2018-11-11T20:23:50.710Z,443.63
2018-11-11T20:26:18.049Z,390.07
2018-11-11T20:28:45.430Z,389.33
2018-11-11T20:31:12.860Z,394.30
2018-11-11T20:33:40.208Z,373.23
2018-11-11T20:36:07.888Z,345.57
2018-11-11T20:38:35.246Z,363.20
2018-11-11T20:41:02.637Z,376.00
2018-11-11T20:43:31.442Z,478.67
2018-11-11T20:45:58.943Z,462.03
2018-11-11T20:48:26.434Z,464.80
2018-11-11T20:50:54.159Z,454.77
2018-11-11T20:53:21.545Z,504.70
2018-11-11T20:55:48.934Z,468.27
2018-11-11T20:58:16.295Z,489.23
2018-11-11T21:00:43.641Z,461.60
2018-11-11T21:03:10.987Z,461.50
2018-11-11T21:05:38.277Z,429.40
2018-11-11T21:08:05.806Z,419.73
2018-11-11T21:10:33.221Z,367.10
2018-11-11T21:13:00.570Z,384.37
2018-11-11T21:15:29.166Z,380.43
2018-11-11T21:17:56.530Z,513.47
2018-11-11T21:20:28.193Z,412.70
2018-11-11T21:22:55.650Z,440.77
2018-11-11T21:25:23.437Z,445.73
2018-11-11T21:27:51.429Z,488.20
2018-11-11T21:30:21.985Z,482.60
2018-11-11T21:32:49.538Z,471.23
2018-11-11T21:35:16.921Z,459.90
2018-11-11T21:37:44.539Z,480.83
2018-11-11T21:40:13.939Z,440.23
2018-11-11T21:42:44.261Z,454.57
2018-11-11T21:45:12.939Z,445.20
2018-11-11T21:47:40.765Z,507.90
2018-11-11T21:50:09.919Z,664.13
2018-11-11T21:52:37.373Z,616.70
2018-11-11T21:55:06.908Z,484.93
2018-11-11T21:57:34.432Z,458.90
2018-11-11T22:00:01.821Z,411.83
2018-11-11T22:02:29.277Z,434.77
2018-11-11T22:04:56.622Z,467.57
2018-11-11T22:07:23.974Z,605.00
2018-11-11T22:09:51.784Z,483.00
2018-11-11T22:12:19.271Z,474.03
2018-11-11T22:14:46.627Z,433.67
2018-11-11T22:17:14.067Z,422.27
2018-11-11T22:19:41.384Z,424.30
2018-11-11T22:22:08.737Z,426.87
2018-11-11T22:24:37.283Z,414.03
2018-11-11T22:27:08.651Z,454.50
2018-11-11T22:29:37.133Z,749.27
2018-11-11T22:32:04.714Z,515.07
2018-11-11T22:34:32.346Z,534.93
2018-11-11T22:36:59.797Z,625.40
2018-11-11T22:39:27.220Z,575.17
2018-11-11T22:41:54.651Z,454.27
2018-11-11T22:44:22.074Z,423.17
2018-11-11T22:46:54.179Z,418.87
2018-11-11T22:49:21.594Z,440.37
2018-11-11T22:51:48.937Z,490.13
2018-11-11T22:56:49.758Z,682.57
2018-11-11T22:59:17.756Z,496.87
2018-11-11T23:01:45.089Z,430.43
2018-11-11T23:04:12.380Z,414.83
2018-11-11T23:06:39.786Z,418.17
2018-11-11T23:09:08.893Z,442.57
2018-11-11T23:11:36.294Z,405.27
2018-11-11T23:14:06.308Z,431.10
2018-11-11T23:16:33.720Z,725.60
2018-11-11T23:19:01.097Z,541.60
2018-11-11T23:21:29.069Z,697.47
2018-11-11T23:23:56.463Z,606.93
2018-11-11T23:26:23.844Z,650.70
2018-11-11T23:28:51.310Z,625.17
2018-11-11T23:31:18.695Z,445.73
2018-11-11T23:33:46.011Z,426.73
2018-11-11T23:36:13.370Z,457.77
2018-11-11T23:38:40.799Z,658.97
2018-11-11T23:41:08.106Z,863.33
2018-11-11T23:43:35.468Z,778.60
2018-11-11T23:46:02.867Z,575.13
2018-11-11T23:48:30.290Z,446.17
2018-11-11T23:50:57.916Z,512.43
2018-11-11T23:53:25.535Z,494.33
2018-11-11T23:55:52.928Z,468.27
2018-11-11T23:58:20.622Z,458.27
